createdAt,value
2023-11-25T00:00:54.776Z,42.47
2023-11-25T00:03:22.022Z,42.66
2023-11-25T00:05:50.367Z,42.89
2023-11-25T00:08:18.090Z,42.65
2023-11-25T00:10:45.089Z,42.91
2023-11-25T00:13:12.105Z,43.12
2023-11-25T00:15:40.213Z,42.75
2023-11-25T00:18:07.844Z,42.87
2023-11-25T00:20:37.380Z,42.73
2023-11-25T00:23:04.541Z,42.66
2023-11-25T00:25:31.453Z,42.77
2023-11-25T00:27:58.242Z,42.81
2023-11-25T00:30:25.249Z,42.77
2023-11-25T00:32:53.027Z,42.83
2023-11-25T00:35:38.625Z,42.75
2023-11-25T00:38:09.428Z,42.85
2023-11-25T00:40:37.207Z,42.83
2023-11-25T00:43:04.774Z,42.97
2023-11-25T00:45:31.623Z,43.19
2023-11-25T00:47:58.510Z,43.22
2023-11-25T00:50:26.229Z,43.04
2023-11-25T00:52:53.280Z,43.07
2023-11-25T00:55:20.033Z,43.13
2023-11-25T00:57:47.262Z,42.97
2023-11-25T01:00:17.804Z,43.02
2023-11-25T01:02:45.501Z,42.97
2023-11-25T01:05:12.618Z,42.96
2023-11-25T01:07:39.537Z,43.01
2023-11-25T01:10:06.953Z,43.05
2023-11-25T01:12:36.149Z,43.11
2023-11-25T01:15:04.850Z,43.38
2023-11-25T01:17:31.642Z,43.43
2023-11-25T01:19:59.427Z,43.30
2023-11-25T01:22:27.097Z,43.49
2023-11-25T01:24:53.970Z,43.71
2023-11-25T01:27:22.105Z,43.75
2023-11-25T01:29:48.789Z,43.73
2023-11-25T01:32:15.609Z,43.89
2023-11-25T01:34:42.450Z,43.65
2023-11-25T01:37:09.857Z,43.89
2023-11-25T01:39:36.567Z,43.76
2023-11-25T01:42:03.564Z,43.69
2023-11-25T01:44:30.255Z,43.70
2023-11-25T01:46:57.138Z,43.79
2023-11-25T01:49:24.054Z,44.05
2023-11-25T01:51:52.801Z,43.82
2023-11-25T01:54:21.447Z,44.21
2023-11-25T01:56:52.683Z,44.20
2023-11-25T01:59:21.260Z,44.05
2023-11-25T02:01:48.328Z,44.15
2023-11-25T02:04:15.440Z,44.52
2023-11-25T02:06:42.467Z,44.26
2023-11-25T02:09:09.772Z,44.16
2023-11-25T02:12:02.889Z,43.99
2023-11-25T02:14:29.857Z,44.26
2023-11-25T02:16:58.427Z,44.25
2023-11-25T02:19:25.731Z,44.14
2023-11-25T02:21:53.573Z,44.34
2023-11-25T02:24:20.786Z,44.17
2023-11-25T02:26:47.996Z,44.24
2023-11-25T02:29:14.908Z,44.11
2023-11-25T02:31:43.767Z,44.17
2023-11-25T02:34:11.117Z,44.09
2023-11-25T02:36:39.670Z,44.30
2023-11-25T02:39:06.690Z,44.31
2023-11-25T02:41:33.757Z,44.37
2023-11-25T02:44:01.217Z,44.51
2023-11-25T02:46:28.908Z,44.37
2023-11-25T02:48:55.741Z,44.37
2023-11-25T02:51:22.981Z,44.51
2023-11-25T02:53:50.587Z,44.64
2023-11-25T02:56:17.511Z,44.61
2023-11-25T02:58:44.586Z,44.42
2023-11-25T03:01:15.027Z,44.48
2023-11-25T03:03:48.706Z,44.57
2023-11-25T03:06:17.413Z,44.44
2023-11-25T03:08:44.745Z,44.22
2023-11-25T03:11:16.932Z,44.20
2023-11-25T03:13:43.796Z,44.41
2023-11-25T03:16:11.787Z,44.58
2023-11-25T03:18:38.841Z,44.53
2023-11-25T03:21:06.436Z,44.48
2023-11-25T03:23:33.222Z,44.24
2023-11-25T03:26:00.158Z,44.58
2023-11-25T03:28:27.727Z,44.36
2023-11-25T03:30:55.323Z,44.28
2023-11-25T03:33:22.185Z,44.32
2023-11-25T03:35:49.018Z,44.38
2023-11-25T03:38:16.843Z,44.43
2023-11-25T03:40:43.651Z,44.38
2023-11-25T03:43:10.457Z,44.31
2023-11-25T03:45:37.195Z,44.42
2023-11-25T03:48:06.807Z,44.36
2023-11-25T03:50:34.080Z,44.58
2023-11-25T03:53:02.279Z,44.60
2023-11-25T03:55:29.156Z,44.39
2023-11-25T03:57:55.942Z,44.50
2023-11-25T04:00:23.676Z,44.46
2023-11-25T04:02:50.545Z,44.49
2023-11-25T04:05:20.241Z,44.48
2023-11-25T04:07:47.352Z,44.47
2023-11-25T04:10:15.019Z,44.35
2023-11-25T04:12:49.679Z,44.39
2023-11-25T04:15:20.946Z,44.11
2023-11-25T04:17:48.426Z,44.40
2023-11-25T04:20:18.914Z,44.20
2023-11-25T04:22:47.911Z,44.22
2023-11-25T04:25:16.889Z,44.18
2023-11-25T04:27:45.777Z,44.15
2023-11-25T04:30:13.198Z,44.23
2023-11-25T04:32:44.346Z,44.12
2023-11-25T04:35:11.425Z,44.22
2023-11-25T04:37:38.597Z,44.14
2023-11-25T04:40:06.623Z,43.95
2023-11-25T04:42:34.001Z,44.04
2023-11-25T04:45:01.140Z,43.98
2023-11-25T04:47:28.120Z,43.78
2023-11-25T04:49:55.238Z,43.96
2023-11-25T04:52:22.103Z,43.78
2023-11-25T04:54:50.153Z,43.44
2023-11-25T04:57:17.777Z,43.36
2023-11-25T04:59:44.533Z,43.63
2023-11-25T05:02:11.421Z,43.45
2023-11-25T05:04:38.338Z,43.52
2023-11-25T05:07:05.796Z,43.23
2023-11-25T05:09:33.196Z,43.22
2023-11-25T05:12:00.861Z,42.80
2023-11-25T05:14:27.982Z,42.77
2023-11-25T05:16:57.193Z,42.78
2023-11-25T05:19:24.292Z,42.36
2023-11-25T05:21:50.970Z,42.54
2023-11-25T05:24:17.876Z,42.41
2023-11-25T05:26:44.809Z,42.16
2023-11-25T05:29:11.585Z,42.14
2023-11-25T05:31:38.502Z,41.90
2023-11-25T05:34:06.550Z,41.92
2023-11-25T05:36:36.051Z,42.16
2023-11-25T05:39:03.429Z,41.79
2023-11-25T05:41:30.287Z,41.71
2023-11-25T05:43:58.704Z,41.74
2023-11-25T05:46:26.183Z,41.70
2023-11-25T05:48:54.365Z,41.71
2023-11-25T05:51:21.736Z,41.90
2023-11-25T05:53:48.507Z,41.54
2023-11-25T05:56:15.509Z,41.36
2023-11-25T05:58:42.351Z,41.40
2023-11-25T06:01:09.225Z,41.29
2023-11-25T06:03:36.099Z,41.31
2023-11-25T06:06:07.449Z,41.48
2023-11-25T06:08:34.246Z,41.23
2023-11-25T06:11:00.975Z,41.40
2023-11-25T06:13:27.729Z,41.29
2023-11-25T06:15:54.400Z,41.10
2023-11-25T06:18:22.095Z,41.20
2023-11-25T06:20:49.042Z,41.47
2023-11-25T06:23:16.132Z,41.37
2023-11-25T06:25:44.148Z,41.48
2023-11-25T06:28:14.584Z,41.16
2023-11-25T06:30:41.321Z,41.35
2023-11-25T06:33:08.273Z,41.44
2023-11-25T06:35:37.248Z,41.25
2023-11-25T06:38:05.452Z,41.19
2023-11-25T06:40:34.600Z,41.39
2023-11-25T06:43:01.810Z,41.39
2023-11-25T06:45:48.441Z,41.03
2023-11-25T06:48:18.958Z,40.76
2023-11-25T06:51:04.929Z,40.73
2023-11-25T06:53:33.907Z,40.54
2023-11-25T06:56:01.114Z,40.60
2023-11-25T06:58:28.904Z,40.41
2023-11-25T07:00:58.934Z,40.48
2023-11-25T07:03:25.793Z,40.49
2023-11-25T07:05:52.677Z,40.27
2023-11-25T07:08:19.492Z,40.26
2023-11-25T07:10:54.902Z,40.00
2023-11-25T07:13:41.544Z,40.15
2023-11-25T07:16:09.235Z,39.95
2023-11-25T07:18:36.363Z,39.82
2023-11-25T07:21:03.543Z,39.73
2023-11-25T07:23:30.249Z,39.91
2023-11-25T07:25:57.179Z,39.91
2023-11-25T07:28:24.126Z,40.13
2023-11-25T07:30:51.072Z,40.31
2023-11-25T07:33:17.869Z,40.23
2023-11-25T07:35:44.667Z,40.52
2023-11-25T07:38:11.610Z,40.82
2023-11-25T07:40:38.618Z,40.74
2023-11-25T07:43:05.474Z,40.48
2023-11-25T07:45:32.236Z,40.42
2023-11-25T07:47:59.491Z,40.46
2023-11-25T07:50:27.174Z,40.24
2023-11-25T07:52:54.395Z,40.56
2023-11-25T07:55:21.373Z,40.33
2023-11-25T07:57:49.332Z,40.40
2023-11-25T08:00:17.862Z,40.42
2023-11-25T08:02:45.779Z,40.51
2023-11-25T08:05:23.059Z,40.31
2023-11-25T08:07:54.629Z,40.22
2023-11-25T08:10:23.750Z,39.95
2023-11-25T08:12:50.610Z,39.57
2023-11-25T08:15:18.930Z,39.27
2023-11-25T08:17:45.928Z,39.18
2023-11-25T08:20:13.087Z,39.14
2023-11-25T08:22:40.534Z,39.01
2023-11-25T08:25:11.725Z,39.13
2023-11-25T08:27:39.174Z,38.59
2023-11-25T08:30:09.684Z,38.56
2023-11-25T08:32:41.470Z,38.43
2023-11-25T08:35:10.512Z,37.98
2023-11-25T08:37:39.714Z,37.94
2023-11-25T08:40:16.552Z,37.84
2023-11-25T08:42:45.532Z,37.96
2023-11-25T08:45:12.921Z,37.87
2023-11-25T08:47:42.908Z,37.57
2023-11-25T08:50:12.068Z,37.57
2023-11-25T08:52:40.461Z,37.52
2023-11-25T08:55:11.140Z,37.33
2023-11-25T08:57:38.685Z,37.36
2023-11-25T09:00:25.408Z,37.15
2023-11-25T09:02:53.604Z,36.83
2023-11-25T09:05:26.822Z,36.65
2023-11-25T09:07:56.427Z,36.27
2023-11-25T09:10:24.431Z,36.20
2023-11-25T09:12:53.902Z,35.91
2023-11-25T09:15:22.735Z,35.17
2023-11-25T09:17:49.743Z,34.83
2023-11-25T09:20:17.917Z,34.09
2023-11-25T09:22:44.812Z,33.44
2023-11-25T09:25:13.157Z,32.92
2023-11-25T09:27:59.376Z,32.89
2023-11-25T09:30:27.291Z,32.46
2023-11-25T09:32:54.866Z,32.20
2023-11-25T09:35:24.180Z,31.72
2023-11-25T09:37:51.918Z,31.38
2023-11-25T09:40:20.810Z,31.44
2023-11-25T09:42:48.985Z,31.60
2023-11-25T09:45:16.626Z,31.41
2023-11-25T09:47:45.303Z,31.24
2023-11-25T09:50:14.551Z,30.98
2023-11-25T09:52:53.501Z,30.95
2023-11-25T09:55:23.920Z,30.78
2023-11-25T09:57:55.261Z,30.35
2023-11-25T10:00:22.945Z,30.52
2023-11-25T10:02:54.499Z,30.36
2023-11-25T10:05:22.074Z,30.15
2023-11-25T10:07:49.034Z,30.37
2023-11-25T10:10:22.625Z,29.87
2023-11-25T10:12:50.336Z,29.66
2023-11-25T10:15:17.591Z,29.32
2023-11-25T10:17:45.830Z,29.33
2023-11-25T10:20:20.726Z,29.40
2023-11-25T10:22:54.768Z,29.39
2023-11-25T10:25:22.816Z,29.62
2023-11-25T10:27:52.505Z,29.19
2023-11-25T10:30:21.854Z,29.29
2023-11-25T10:32:55.807Z,29.10
2023-11-25T10:35:25.928Z,29.16
2023-11-25T10:37:53.118Z,29.21
2023-11-25T10:40:20.922Z,29.81
2023-11-25T10:42:47.780Z,29.63
2023-11-25T10:45:19.126Z,30.02
2023-11-25T10:47:46.299Z,30.29
2023-11-25T10:50:16.681Z,30.20
2023-11-25T10:52:44.939Z,29.76
2023-11-25T10:55:12.275Z,30.01
2023-11-25T10:57:39.351Z,29.65
2023-11-25T11:00:12.439Z,28.51
2023-11-25T11:02:45.079Z,27.98
2023-11-25T11:05:15.332Z,28.04
2023-11-25T11:07:55.901Z,27.96
2023-11-25T11:10:32.507Z,27.29
2023-11-25T11:13:09.265Z,26.47
2023-11-25T11:15:37.363Z,26.42
2023-11-25T11:18:17.643Z,26.48
2023-11-25T11:20:51.131Z,26.90
2023-11-25T11:23:20.596Z,26.91
2023-11-25T11:26:00.995Z,26.30
2023-11-25T11:28:39.821Z,26.46
2023-11-25T11:31:44.105Z,26.12
2023-11-25T11:34:11.162Z,27.10
2023-11-25T11:36:37.872Z,26.11
2023-11-25T11:39:04.719Z,25.60
2023-11-25T11:41:31.509Z,26.67
2023-11-25T11:44:06.244Z,27.25
2023-11-25T11:46:43.767Z,25.63
2023-11-25T11:49:13.457Z,26.08
2023-11-25T11:52:01.611Z,26.21
2023-11-25T11:54:29.713Z,26.73
2023-11-25T11:57:08.697Z,26.74
2023-11-25T12:00:01.792Z,27.18
2023-11-25T12:02:32.582Z,27.39
2023-11-25T12:05:00.851Z,27.51
2023-11-25T12:07:28.556Z,27.10
2023-11-25T12:09:57.580Z,27.36
2023-11-25T12:12:25.310Z,27.68
2023-11-25T12:14:54.359Z,28.11
2023-11-25T12:17:22.803Z,27.45
2023-11-25T12:19:53.543Z,26.51
2023-11-25T12:22:20.580Z,26.47
2023-11-25T12:24:47.321Z,26.60
2023-11-25T12:27:15.830Z,26.46
2023-11-25T12:29:42.474Z,25.94
2023-11-25T12:32:09.373Z,25.03
2023-11-25T12:34:36.845Z,25.07
2023-11-25T12:37:03.917Z,25.83
2023-11-25T12:39:30.636Z,25.68
2023-11-25T12:41:57.402Z,25.80
2023-11-25T12:44:24.717Z,25.37
2023-11-25T12:47:03.126Z,25.45
2023-11-25T12:49:50.890Z,26.78
2023-11-25T12:52:25.865Z,25.57
2023-11-25T12:54:54.087Z,26.31
2023-11-25T12:57:26.929Z,26.18
2023-11-25T12:59:53.720Z,24.81
2023-11-25T13:02:21.308Z,24.48
2023-11-25T13:04:52.170Z,25.13
2023-11-25T13:07:35.900Z,24.13
2023-11-25T13:10:04.972Z,24.29
2023-11-25T13:12:32.924Z,24.95
2023-11-25T13:14:59.884Z,25.03
2023-11-25T13:17:26.934Z,25.02
2023-11-25T13:19:54.199Z,24.92
2023-11-25T13:22:21.052Z,24.81
2023-11-25T13:24:47.863Z,25.64
2023-11-25T13:27:14.739Z,25.80
2023-11-25T13:29:45.669Z,25.41
2023-11-25T13:32:12.497Z,25.73
2023-11-25T13:34:42.428Z,26.03
2023-11-25T13:37:09.428Z,26.93
2023-11-25T13:39:37.034Z,27.37
2023-11-25T13:42:05.965Z,27.18
2023-11-25T13:44:33.037Z,27.43
2023-11-25T13:47:00.147Z,28.00
2023-11-25T13:49:30.356Z,28.04
2023-11-25T13:51:57.972Z,28.55
2023-11-25T13:54:27.544Z,27.38
2023-11-25T13:56:56.984Z,27.91
2023-11-25T13:59:24.191Z,28.77
2023-11-25T14:01:51.149Z,28.97
2023-11-25T14:04:17.950Z,29.17
2023-11-25T14:06:44.640Z,29.61
2023-11-25T14:09:18.745Z,29.60
2023-11-25T14:11:45.954Z,28.99
2023-11-25T14:14:13.597Z,29.44
2023-11-25T14:16:40.810Z,29.41
2023-11-25T14:19:08.199Z,29.59
2023-11-25T14:21:35.024Z,28.80
2023-11-25T14:24:01.695Z,27.90
2023-11-25T14:26:28.504Z,27.73
2023-11-25T14:28:55.549Z,26.70
2023-11-25T14:31:23.336Z,26.42
2023-11-25T14:33:50.228Z,25.96
2023-11-25T14:36:17.149Z,25.76
2023-11-25T14:38:43.903Z,25.33
2023-11-25T14:41:10.783Z,25.00
2023-11-25T14:43:37.556Z,24.90
2023-11-25T14:46:04.604Z,24.78
2023-11-25T14:48:31.445Z,24.54
2023-11-25T14:50:58.184Z,24.55
2023-11-25T14:53:25.020Z,24.53
2023-11-25T14:55:52.002Z,24.31
2023-11-25T14:58:18.774Z,24.35
2023-11-25T15:00:46.467Z,24.15
2023-11-25T15:03:13.524Z,23.99
2023-11-25T15:05:40.678Z,23.92
2023-11-25T15:08:08.374Z,23.91
2023-11-25T15:10:35.745Z,23.92
2023-11-25T15:13:02.549Z,23.79
2023-11-25T15:15:29.719Z,23.84
2023-11-25T15:17:56.489Z,23.93
2023-11-25T15:20:24.053Z,23.92
2023-11-25T15:22:52.241Z,24.16
2023-11-25T15:25:19.260Z,24.17
2023-11-25T15:27:46.193Z,24.09
2023-11-25T15:30:13.742Z,24.02
2023-11-25T15:32:43.586Z,24.10
2023-11-25T15:35:11.563Z,24.18
2023-11-25T15:37:38.473Z,24.18
2023-11-25T15:40:06.084Z,23.95
2023-11-25T15:42:33.361Z,24.17
2023-11-25T15:45:00.297Z,24.44
2023-11-25T15:47:27.105Z,24.36
2023-11-25T15:49:54.582Z,24.49
2023-11-25T15:52:21.376Z,24.64
2023-11-25T15:54:48.238Z,24.84
2023-11-25T15:57:15.026Z,24.83
2023-11-25T15:59:45.129Z,24.48
2023-11-25T16:02:12.336Z,24.79
2023-11-25T16:04:39.707Z,24.54
2023-11-25T16:07:11.809Z,24.42
2023-11-25T16:09:40.092Z,24.47
2023-11-25T16:12:07.450Z,24.40
2023-11-25T16:14:34.771Z,24.45
2023-11-25T16:17:01.626Z,24.27
2023-11-25T16:19:28.376Z,24.21
2023-11-25T16:21:57.491Z,24.14
2023-11-25T16:24:27.763Z,24.12
2023-11-25T16:26:54.559Z,23.99
2023-11-25T16:29:21.354Z,23.92
2023-11-25T16:31:48.181Z,24.13
2023-11-25T16:34:14.987Z,24.25
2023-11-25T16:36:42.203Z,23.88
2023-11-25T16:39:11.242Z,24.46
2023-11-25T16:41:38.710Z,24.43
2023-11-25T16:44:06.138Z,24.42
2023-11-25T16:46:33.732Z,24.48
2023-11-25T16:49:07.412Z,24.40
2023-11-25T16:51:35.955Z,24.28
2023-11-25T16:54:02.758Z,24.43
2023-11-25T16:56:29.653Z,24.50
2023-11-25T16:58:56.366Z,24.52
2023-11-25T17:01:23.214Z,24.15
2023-11-25T17:03:50.347Z,24.52
2023-11-25T17:06:17.323Z,24.50
2023-11-25T17:08:46.171Z,24.45
2023-11-25T17:11:13.000Z,24.37
2023-11-25T17:13:39.814Z,24.58
2023-11-25T17:16:06.626Z,24.58
2023-11-25T17:18:33.516Z,24.86
2023-11-25T17:21:02.520Z,24.55
2023-11-25T17:23:29.246Z,24.41
2023-11-25T17:25:56.024Z,24.76
2023-11-25T17:28:23.890Z,24.58
2023-11-25T17:30:50.723Z,24.32
2023-11-25T17:33:17.489Z,24.38
2023-11-25T17:35:44.401Z,24.49
2023-11-25T17:38:11.347Z,24.50
2023-11-25T17:40:38.159Z,24.69
2023-11-25T17:43:05.639Z,24.42
2023-11-25T17:45:32.489Z,24.63
2023-11-25T17:47:59.270Z,24.54
2023-11-25T17:50:28.770Z,24.49
2023-11-25T17:53:06.914Z,24.58
2023-11-25T17:55:39.385Z,24.58
2023-11-25T17:58:06.572Z,24.50
2023-11-25T18:00:33.480Z,24.85
2023-11-25T18:03:05.980Z,24.69
2023-11-25T18:05:32.818Z,24.64
2023-11-25T18:07:59.518Z,24.70
2023-11-25T18:10:28.963Z,24.68
2023-11-25T18:12:56.564Z,24.73
2023-11-25T18:15:23.704Z,24.89
2023-11-25T18:17:50.802Z,24.91
2023-11-25T18:20:17.649Z,24.87
2023-11-25T18:22:44.546Z,24.87
2023-11-25T18:25:11.644Z,24.88
2023-11-25T18:27:39.415Z,24.83
2023-11-25T18:30:06.934Z,24.99
2023-11-25T18:32:33.763Z,24.91
2023-11-25T18:35:02.054Z,25.04
2023-11-25T18:37:29.369Z,25.15
2023-11-25T18:39:56.188Z,24.95
2023-11-25T18:42:22.926Z,25.08
2023-11-25T18:44:49.708Z,24.65
2023-11-25T18:47:16.473Z,24.62
2023-11-25T18:49:43.250Z,24.67
2023-11-25T18:52:10.099Z,24.58
2023-11-25T18:54:37.004Z,24.49
2023-11-25T18:57:03.932Z,24.58
2023-11-25T18:59:30.673Z,24.73
2023-11-25T19:01:57.458Z,24.99
2023-11-25T19:04:24.326Z,25.07
2023-11-25T19:06:51.893Z,24.96
2023-11-25T19:09:18.829Z,24.98
2023-11-25T19:11:46.940Z,24.88
2023-11-25T19:14:16.538Z,24.73
2023-11-25T19:16:43.440Z,24.88
2023-11-25T19:19:11.005Z,24.96
2023-11-25T19:21:37.891Z,25.17
2023-11-25T19:24:05.150Z,25.24
2023-11-25T19:26:31.955Z,24.58
2023-11-25T19:28:58.744Z,25.11
2023-11-25T19:31:25.573Z,24.71
2023-11-25T19:33:54.066Z,25.03
2023-11-25T19:36:20.974Z,25.15
2023-11-25T19:38:47.686Z,25.07
2023-11-25T19:41:17.187Z,25.05
2023-11-25T19:43:46.228Z,25.04
2023-11-25T19:46:16.050Z,24.84
2023-11-25T19:48:46.430Z,24.98
2023-11-25T19:51:13.167Z,24.67
2023-11-25T19:53:50.225Z,24.85
2023-11-25T19:56:22.023Z,25.46
2023-11-25T19:58:48.909Z,25.55
2023-11-25T20:01:15.749Z,25.52
2023-11-25T20:03:44.779Z,25.63
2023-11-25T20:06:12.167Z,25.65
2023-11-25T20:08:38.893Z,25.70
2023-11-25T20:11:05.955Z,25.57
2023-11-25T20:13:32.742Z,25.39
2023-11-25T20:15:59.715Z,25.46
2023-11-25T20:18:26.647Z,25.44
2023-11-25T20:20:53.918Z,25.51
2023-11-25T20:23:21.173Z,25.62
2023-11-25T20:25:48.162Z,25.37
2023-11-25T20:28:15.177Z,25.46
2023-11-25T20:30:43.033Z,25.56
2023-11-25T20:33:10.981Z,25.71
2023-11-25T20:35:37.790Z,25.58
2023-11-25T20:38:05.969Z,25.88
2023-11-25T20:40:32.862Z,25.91
2023-11-25T20:42:59.839Z,25.73
2023-11-25T20:45:26.584Z,25.64
2023-11-25T20:47:53.818Z,25.60
2023-11-25T20:50:20.961Z,25.78
2023-11-25T20:52:47.992Z,25.50
2023-11-25T20:55:15.091Z,25.48
2023-11-25T20:57:41.902Z,25.61
2023-11-25T21:00:13.415Z,25.25
2023-11-25T21:02:40.827Z,25.38
2023-11-25T21:05:08.035Z,25.38
2023-11-25T21:07:34.822Z,25.50
2023-11-25T21:10:01.668Z,25.17
2023-11-25T21:12:28.394Z,25.23
2023-11-25T21:14:55.401Z,24.89
2023-11-25T21:17:22.847Z,24.90
2023-11-25T21:19:49.614Z,24.67
2023-11-25T21:22:19.599Z,24.82
2023-11-25T21:24:46.336Z,24.74
2023-11-25T21:27:13.658Z,24.84
2023-11-25T21:29:40.415Z,24.72
2023-11-25T21:32:09.520Z,24.55
2023-11-25T21:34:37.064Z,24.68
2023-11-25T21:37:05.548Z,24.66
2023-11-25T21:39:32.658Z,24.53
2023-11-25T21:41:59.381Z,24.67
2023-11-25T21:44:26.206Z,24.61
2023-11-25T21:46:53.249Z,24.53
2023-11-25T21:49:20.197Z,24.50
2023-11-25T21:51:46.849Z,24.44
2023-11-25T21:54:14.149Z,24.73
2023-11-25T21:56:40.936Z,24.54
2023-11-25T21:59:07.887Z,24.63
2023-11-25T22:01:34.683Z,24.46
2023-11-25T22:04:02.397Z,24.41
2023-11-25T22:06:29.326Z,24.45
2023-11-25T22:08:57.685Z,24.45
2023-11-25T22:11:24.803Z,24.64
2023-11-25T22:13:52.102Z,24.35
2023-11-25T22:16:19.348Z,24.56
2023-11-25T22:18:46.446Z,24.61
2023-11-25T22:21:13.437Z,24.30
2023-11-25T22:23:42.105Z,24.62
2023-11-25T22:26:19.556Z,24.47
2023-11-25T22:28:46.701Z,24.58
2023-11-25T22:31:16.938Z,24.36
2023-11-25T22:33:44.719Z,24.36
2023-11-25T22:36:24.873Z,24.13
2023-11-25T22:38:55.400Z,24.58
2023-11-25T22:41:22.885Z,24.34
2023-11-25T22:43:52.070Z,24.34
2023-11-25T22:46:22.983Z,24.35
2023-11-25T22:48:51.522Z,24.21
2023-11-25T22:51:20.540Z,24.23
2023-11-25T22:53:47.386Z,24.46
2023-11-25T22:56:14.798Z,24.46
2023-11-25T22:58:41.824Z,24.67
2023-11-25T23:01:13.486Z,24.47
2023-11-25T23:03:40.589Z,24.41
2023-11-25T23:06:10.184Z,24.61
2023-11-25T23:08:38.201Z,24.83
2023-11-25T23:11:05.254Z,24.93
2023-11-25T23:13:32.062Z,24.83
2023-11-25T23:15:59.706Z,24.96
2023-11-25T23:18:26.550Z,24.96
2023-11-25T23:20:53.412Z,24.85
2023-11-25T23:23:20.563Z,24.64
2023-11-25T23:25:49.213Z,24.91
2023-11-25T23:28:17.843Z,24.81
2023-11-25T23:30:44.629Z,25.02
2023-11-25T23:33:11.502Z,24.60
2023-11-25T23:35:38.378Z,24.72
2023-11-25T23:38:05.549Z,24.77
2023-11-25T23:40:32.300Z,24.78
2023-11-25T23:42:59.072Z,24.86
2023-11-25T23:45:27.202Z,24.85
2023-11-25T23:47:54.061Z,24.92
2023-11-25T23:50:20.867Z,25.02
2023-11-25T23:52:47.726Z,25.11
2023-11-25T23:55:14.486Z,25.24
2023-11-25T23:57:41.195Z,25.17
